createdAt,value
2022-10-18T00:00:26.099Z,1080
2022-10-18T00:01:17.890Z,1005
2022-10-18T00:02:09.750Z,1048
2022-10-18T00:03:01.469Z,1160
2022-10-18T00:03:53.237Z,963
2022-10-18T00:04:45.002Z,820
2022-10-18T00:05:36.712Z,882
2022-10-18T00:06:28.563Z,943
2022-10-18T00:07:20.325Z,1007
2022-10-18T00:08:12.126Z,987
2022-10-18T00:09:03.881Z,1229
2022-10-18T00:09:55.695Z,1042
2022-10-18T00:10:47.387Z,1217
2022-10-18T00:11:39.221Z,1106
2022-10-18T00:12:30.985Z,1187
2022-10-18T00:13:22.784Z,957
2022-10-18T00:14:14.559Z,800
2022-10-18T00:15:06.349Z,846
2022-10-18T00:15:58.095Z,945
2022-10-18T00:16:49.894Z,967
2022-10-18T00:17:41.651Z,1034
2022-10-18T00:18:33.461Z,1165
2022-10-18T00:19:28.482Z,1179
2022-10-18T00:20:16.932Z,1152
2022-10-18T00:21:08.764Z,1090
2022-10-18T00:22:00.529Z,989
2022-10-18T00:22:52.335Z,1094
2022-10-18T00:23:44.119Z,1054
2022-10-18T00:24:35.902Z,1011
2022-10-18T00:25:27.694Z,1237
2022-10-18T00:26:19.481Z,1019
2022-10-18T00:27:11.244Z,1138
2022-10-18T00:28:03.024Z,1271
2022-10-18T00:28:54.827Z,1088
2022-10-18T00:29:46.536Z,1215
2022-10-18T00:30:38.422Z,1160
2022-10-18T00:31:30.149Z,933
2022-10-18T00:32:21.948Z,1029
2022-10-18T00:33:13.712Z,782
2022-10-18T00:34:05.507Z,888
2022-10-18T00:34:57.202Z,868
2022-10-18T00:35:49.050Z,993
2022-10-18T00:36:40.814Z,961
2022-10-18T00:37:32.606Z,955
2022-10-18T00:38:24.372Z,1205
2022-10-18T00:39:16.214Z,1167
2022-10-18T00:40:07.944Z,868
2022-10-18T00:40:59.726Z,747
2022-10-18T00:41:51.503Z,919
2022-10-18T00:42:43.294Z,854
2022-10-18T00:43:35.059Z,727
2022-10-18T00:44:26.807Z,888
2022-10-18T00:45:18.630Z,696
2022-10-18T00:46:10.423Z,804
2022-10-18T00:47:02.171Z,654
2022-10-18T00:47:53.967Z,627
2022-10-18T00:48:45.754Z,658
2022-10-18T00:49:37.517Z,717
2022-10-18T00:50:29.279Z,721
2022-10-18T00:51:21.084Z,919
2022-10-18T00:52:12.839Z,763
2022-10-18T00:53:04.630Z,751
2022-10-18T00:53:56.585Z,680
2022-10-18T00:54:48.186Z,679
2022-10-18T00:55:39.993Z,667
2022-10-18T00:56:31.746Z,1092
2022-10-18T00:57:23.512Z,649
2022-10-18T00:58:15.294Z,689
2022-10-18T00:59:07.002Z,637
2022-10-18T00:59:58.858Z,665
2022-10-18T01:00:50.625Z,688
2022-10-18T01:01:42.457Z,735
2022-10-18T01:02:34.318Z,1221
2022-10-18T01:03:25.973Z,717
2022-10-18T01:04:17.723Z,890
2022-10-18T01:05:09.515Z,780
2022-10-18T01:06:01.268Z,1126
2022-10-18T01:06:53.140Z,1015
2022-10-18T01:07:44.838Z,989
2022-10-18T01:08:36.593Z,664
2022-10-18T01:09:28.389Z,790
2022-10-18T01:10:20.184Z,695
2022-10-18T01:11:11.978Z,701
2022-10-18T01:12:03.734Z,850
2022-10-18T01:12:55.507Z,683
2022-10-18T01:13:47.298Z,749
2022-10-18T01:14:39.068Z,768
2022-10-18T01:15:30.838Z,1146
2022-10-18T01:16:22.626Z,870
2022-10-18T01:17:14.408Z,713
2022-10-18T01:18:06.167Z,816
2022-10-18T01:18:57.963Z,723
2022-10-18T01:19:49.730Z,707
2022-10-18T01:20:41.526Z,699
2022-10-18T01:21:33.291Z,688
2022-10-18T01:22:25.080Z,727
2022-10-18T01:23:16.784Z,664
2022-10-18T01:24:08.632Z,852
2022-10-18T01:25:00.442Z,695
2022-10-18T01:25:52.204Z,654
2022-10-18T01:26:43.969Z,650
2022-10-18T01:27:35.752Z,658
2022-10-18T01:28:27.580Z,649
2022-10-18T01:29:19.308Z,638
2022-10-18T01:30:11.091Z,672
2022-10-18T01:31:02.868Z,648
2022-10-18T01:31:56.446Z,691
2022-10-18T01:32:46.389Z,735
2022-10-18T01:33:38.213Z,677
2022-10-18T01:34:30.002Z,899
2022-10-18T01:35:21.782Z,786
2022-10-18T01:36:13.565Z,790
2022-10-18T01:37:05.320Z,689
2022-10-18T01:37:57.092Z,828
2022-10-18T01:38:48.883Z,656
2022-10-18T01:39:40.686Z,621
2022-10-18T01:40:32.465Z,689
2022-10-18T01:41:24.238Z,713
2022-10-18T01:42:16.019Z,687
2022-10-18T01:43:07.866Z,680
2022-10-18T01:43:59.588Z,643
2022-10-18T01:44:51.376Z,577
2022-10-18T01:45:43.143Z,671
2022-10-18T01:46:34.926Z,868
2022-10-18T01:47:26.662Z,686
2022-10-18T01:48:18.505Z,937
2022-10-18T01:49:10.257Z,686
2022-10-18T01:50:02.066Z,692
2022-10-18T01:50:53.820Z,686
2022-10-18T01:51:45.616Z,667
2022-10-18T01:52:37.294Z,663
2022-10-18T01:53:29.158Z,662
2022-10-18T01:54:20.926Z,660
2022-10-18T01:55:12.726Z,646
2022-10-18T01:56:04.512Z,662
2022-10-18T01:56:56.282Z,667
2022-10-18T01:57:48.062Z,684
2022-10-18T01:58:39.838Z,721
2022-10-18T01:59:31.624Z,860
2022-10-18T02:00:23.400Z,731
2022-10-18T02:01:15.155Z,696
2022-10-18T02:02:06.865Z,1054
2022-10-18T02:02:58.719Z,1032
2022-10-18T02:03:50.520Z,707
2022-10-18T02:04:42.273Z,688
2022-10-18T02:05:34.066Z,806
2022-10-18T02:06:25.824Z,683
2022-10-18T02:07:17.615Z,681
2022-10-18T02:08:22.132Z,678
2022-10-18T02:09:01.183Z,659
2022-10-18T02:09:52.944Z,629
2022-10-18T02:10:44.727Z,967
2022-10-18T02:11:36.495Z,824
2022-10-18T02:12:28.397Z,886
2022-10-18T02:13:20.041Z,1052
2022-10-18T02:14:11.822Z,923
2022-10-18T02:15:03.583Z,931
2022-10-18T02:15:55.377Z,717
2022-10-18T02:16:47.126Z,669
2022-10-18T02:17:38.927Z,709
2022-10-18T02:18:30.697Z,692
2022-10-18T02:19:22.571Z,727
2022-10-18T02:20:14.280Z,692
2022-10-18T02:21:06.044Z,677
2022-10-18T02:21:57.727Z,685
2022-10-18T02:22:49.592Z,711
2022-10-18T02:23:41.367Z,660
2022-10-18T02:24:33.141Z,637
2022-10-18T02:25:24.898Z,656
2022-10-18T02:26:16.695Z,649
2022-10-18T02:27:08.460Z,658
2022-10-18T02:28:00.254Z,631
2022-10-18T02:28:52.021Z,770
2022-10-18T02:29:43.816Z,678
2022-10-18T02:30:35.556Z,651
2022-10-18T02:31:27.305Z,646
2022-10-18T02:32:19.105Z,674
2022-10-18T02:33:10.917Z,953
2022-10-18T02:34:02.682Z,656
2022-10-18T02:34:54.469Z,692
2022-10-18T02:35:46.221Z,678
2022-10-18T02:36:38.006Z,689
2022-10-18T02:37:29.777Z,673
2022-10-18T02:38:21.562Z,796
2022-10-18T02:39:13.342Z,705
2022-10-18T02:40:05.130Z,679
2022-10-18T02:40:56.784Z,664
2022-10-18T02:41:48.671Z,680
2022-10-18T02:42:40.413Z,662
2022-10-18T02:43:32.196Z,671
2022-10-18T02:44:23.959Z,688
2022-10-18T02:45:15.750Z,701
2022-10-18T02:46:07.493Z,1098
2022-10-18T02:46:59.305Z,836
2022-10-18T02:47:51.056Z,674
2022-10-18T02:48:42.897Z,652
2022-10-18T02:49:34.625Z,629
2022-10-18T02:50:26.406Z,669
2022-10-18T02:51:18.173Z,680
2022-10-18T02:52:09.962Z,733
2022-10-18T02:53:01.722Z,804
2022-10-18T02:53:53.503Z,707
2022-10-18T02:54:45.283Z,735
2022-10-18T02:55:36.984Z,665
2022-10-18T02:56:28.824Z,690
2022-10-18T02:57:20.605Z,694
2022-10-18T02:58:12.392Z,684
2022-10-18T02:59:04.155Z,1130
2022-10-18T02:59:55.920Z,717
2022-10-18T03:00:47.718Z,676
2022-10-18T03:01:39.515Z,689
2022-10-18T03:02:31.261Z,699
2022-10-18T03:03:23.010Z,686
2022-10-18T03:04:14.923Z,679
2022-10-18T03:05:06.555Z,674
2022-10-18T03:05:58.348Z,651
2022-10-18T03:06:50.108Z,633
2022-10-18T03:07:41.901Z,633
2022-10-18T03:08:33.667Z,660
2022-10-18T03:09:25.445Z,646
2022-10-18T03:10:17.128Z,625
2022-10-18T03:11:08.975Z,617
2022-10-18T03:12:00.696Z,684
2022-10-18T03:12:52.529Z,614
2022-10-18T03:13:44.286Z,614
2022-10-18T03:14:36.062Z,617
2022-10-18T03:15:27.809Z,613
2022-10-18T03:16:19.613Z,675
2022-10-18T03:17:11.346Z,743
2022-10-18T03:18:03.153Z,899
2022-10-18T03:18:54.884Z,672
2022-10-18T03:19:46.693Z,674
2022-10-18T03:20:38.431Z,824
2022-10-18T03:21:30.213Z,768
2022-10-18T03:22:22.025Z,688
2022-10-18T03:23:13.753Z,761
2022-10-18T03:24:05.537Z,874
2022-10-18T03:24:57.247Z,882
2022-10-18T03:25:49.069Z,798
2022-10-18T03:26:40.849Z,1034
2022-10-18T03:27:32.921Z,1007
2022-10-18T03:28:24.452Z,1269
2022-10-18T03:29:16.141Z,1076
2022-10-18T03:30:07.934Z,995
2022-10-18T03:30:59.679Z,1070
2022-10-18T03:31:51.471Z,1745
2022-10-18T03:32:43.236Z,1277
2022-10-18T03:33:35.015Z,1489
2022-10-18T03:34:26.775Z,1289
2022-10-18T03:35:18.568Z,1485
2022-10-18T03:36:10.337Z,1084
2022-10-18T03:37:04.742Z,923
2022-10-18T03:37:53.872Z,757
2022-10-18T03:38:45.645Z,895
2022-10-18T03:39:37.329Z,973
2022-10-18T03:41:20.950Z,1108
2022-10-18T03:42:12.745Z,1138
2022-10-18T03:43:04.499Z,1699
2022-10-18T03:43:56.292Z,1306
2022-10-18T03:44:48.045Z,1003
2022-10-18T03:45:39.844Z,1148
2022-10-18T03:46:31.598Z,1271
2022-10-18T03:47:23.375Z,1171
2022-10-18T03:48:15.140Z,1163
2022-10-18T03:49:06.880Z,1221
2022-10-18T03:49:58.701Z,1070
2022-10-18T03:50:50.481Z,981
2022-10-18T03:51:42.255Z,1465
2022-10-18T03:52:34.276Z,1197
2022-10-18T03:53:25.784Z,1239
2022-10-18T03:54:17.554Z,822
2022-10-18T03:55:09.364Z,686
2022-10-18T03:56:01.121Z,646
2022-10-18T03:56:52.888Z,687
2022-10-18T03:57:44.663Z,676
2022-10-18T03:58:36.433Z,654
2022-10-18T03:59:28.225Z,646
2022-10-18T04:00:20.046Z,686
2022-10-18T04:01:11.830Z,665
2022-10-18T04:02:03.601Z,644
2022-10-18T04:02:56.076Z,640
2022-10-18T04:03:47.025Z,687
2022-10-18T04:04:38.853Z,804
2022-10-18T04:05:30.623Z,723
2022-10-18T04:06:22.402Z,745
2022-10-18T04:07:14.195Z,782
2022-10-18T04:08:05.965Z,689
2022-10-18T04:08:57.714Z,852
2022-10-18T04:09:49.507Z,961
2022-10-18T04:10:41.251Z,694
2022-10-18T04:11:33.048Z,1110
2022-10-18T04:12:24.800Z,1078
2022-10-18T04:13:16.607Z,1416
2022-10-18T04:14:08.348Z,1757
2022-10-18T04:15:00.142Z,1564
2022-10-18T04:15:51.890Z,1112
2022-10-18T04:16:43.673Z,901
2022-10-18T04:17:35.644Z,1005
2022-10-18T04:18:27.141Z,997
2022-10-18T04:19:18.994Z,886
2022-10-18T04:20:10.780Z,1116
2022-10-18T04:21:02.829Z,1249
2022-10-18T04:21:54.324Z,1356
2022-10-18T04:22:46.075Z,1404
2022-10-18T04:23:38.850Z,1618
2022-10-18T04:24:29.637Z,1465
2022-10-18T04:25:21.408Z,2069
2022-10-18T04:26:13.184Z,2214
2022-10-18T04:27:05.015Z,1495
2022-10-18T04:27:56.723Z,1842
2022-10-18T04:28:48.563Z,1495
2022-10-18T04:29:40.273Z,1420
2022-10-18T04:30:32.048Z,1821
2022-10-18T04:31:23.824Z,1273
2022-10-18T04:32:15.599Z,1106
2022-10-18T04:33:07.266Z,937
2022-10-18T04:33:59.146Z,895
2022-10-18T04:34:50.889Z,931
2022-10-18T04:35:42.695Z,701
2022-10-18T04:36:34.450Z,794
2022-10-18T04:37:26.236Z,778
2022-10-18T04:38:17.985Z,780
2022-10-18T04:39:09.759Z,780
2022-10-18T04:40:01.448Z,850
2022-10-18T04:40:53.298Z,812
2022-10-18T04:41:45.064Z,929
2022-10-18T04:42:36.831Z,1118
2022-10-18T04:43:28.595Z,890
2022-10-18T04:44:20.381Z,1128
2022-10-18T04:45:12.128Z,1056
2022-10-18T04:46:03.931Z,862
2022-10-18T04:46:55.664Z,915
2022-10-18T04:47:47.377Z,792
2022-10-18T04:48:39.203Z,682
2022-10-18T04:49:31.005Z,776
2022-10-18T04:50:22.766Z,697
2022-10-18T04:51:14.531Z,953
2022-10-18T04:52:06.305Z,1344
2022-10-18T04:52:58.076Z,1152
2022-10-18T04:53:49.834Z,818
2022-10-18T04:54:41.603Z,880
2022-10-18T04:55:33.376Z,692
2022-10-18T04:56:25.144Z,895
2022-10-18T04:57:16.917Z,1011
2022-10-18T04:58:08.692Z,685
2022-10-18T04:59:00.451Z,1021
2022-10-18T04:59:52.252Z,864
2022-10-18T05:00:44.007Z,695
2022-10-18T05:01:35.823Z,661
2022-10-18T05:02:27.447Z,969
2022-10-18T05:03:19.317Z,850
2022-10-18T05:04:11.081Z,682
2022-10-18T05:05:02.831Z,709
2022-10-18T05:06:01.721Z,705
2022-10-18T05:06:46.430Z,757
2022-10-18T05:07:38.173Z,699
2022-10-18T05:08:29.957Z,774
2022-10-18T05:09:21.700Z,1241
2022-10-18T05:10:13.497Z,1418
2022-10-18T05:11:05.311Z,1344
2022-10-18T05:11:57.024Z,1570
2022-10-18T05:12:48.788Z,1537
2022-10-18T05:13:40.571Z,1374
2022-10-18T05:14:32.338Z,1271
2022-10-18T05:15:24.147Z,1680
2022-10-18T05:16:15.902Z,1036
2022-10-18T05:17:07.618Z,840
2022-10-18T05:17:59.427Z,1306
2022-10-18T05:18:51.206Z,997
2022-10-18T05:19:42.962Z,1066
2022-10-18T05:20:34.784Z,800
2022-10-18T05:21:26.497Z,941
2022-10-18T05:22:18.276Z,977
2022-10-18T05:23:10.046Z,870
2022-10-18T05:24:01.816Z,876
2022-10-18T05:24:53.587Z,1064
2022-10-18T05:25:45.365Z,848
2022-10-18T05:26:37.064Z,1144
2022-10-18T05:27:28.916Z,1408
2022-10-18T05:28:38.668Z,1050
2022-10-18T05:29:12.612Z,820
2022-10-18T05:30:05.632Z,870
2022-10-18T05:30:56.022Z,688
2022-10-18T05:31:47.668Z,1021
2022-10-18T05:32:39.545Z,852
2022-10-18T05:33:31.289Z,1225
2022-10-18T05:34:23.101Z,1384
2022-10-18T05:35:14.866Z,1787
2022-10-18T05:36:06.623Z,997
2022-10-18T05:36:58.369Z,886
2022-10-18T05:37:50.169Z,1370
2022-10-18T05:38:42.099Z,1138
2022-10-18T05:39:33.714Z,1090
2022-10-18T05:40:25.469Z,1036
2022-10-18T05:41:17.164Z,1350
2022-10-18T05:42:09.014Z,1342
2022-10-18T05:43:00.800Z,1656
2022-10-18T05:43:52.556Z,1568
2022-10-18T05:44:44.327Z,1352
2022-10-18T05:45:36.096Z,1300
2022-10-18T05:46:27.795Z,977
2022-10-18T05:47:19.632Z,1050
2022-10-18T05:48:11.424Z,983
2022-10-18T05:49:03.169Z,953
2022-10-18T05:49:54.959Z,1285
2022-10-18T05:50:46.722Z,1287
2022-10-18T05:51:38.495Z,1122
2022-10-18T05:52:30.655Z,1243
2022-10-18T05:53:36.204Z,1195
2022-10-18T05:54:13.798Z,1015
2022-10-18T05:55:05.573Z,903
2022-10-18T05:55:57.282Z,913
2022-10-18T05:56:49.298Z,1072
2022-10-18T05:57:40.875Z,1158
2022-10-18T05:58:32.651Z,1273
2022-10-18T05:59:24.426Z,892
2022-10-18T06:00:16.193Z,915
2022-10-18T06:01:07.949Z,1044
2022-10-18T06:01:59.727Z,1080
2022-10-18T06:02:51.534Z,979
2022-10-18T06:03:43.270Z,909
2022-10-18T06:04:35.035Z,1783
2022-10-18T06:05:26.854Z,991
2022-10-18T06:06:18.567Z,800
2022-10-18T06:07:10.342Z,677
2022-10-18T06:08:04.214Z,1451
2022-10-18T06:08:53.889Z,1219
2022-10-18T06:09:45.641Z,1189
2022-10-18T06:10:37.338Z,1318
2022-10-18T06:11:29.191Z,1211
2022-10-18T06:12:20.954Z,1533
2022-10-18T06:13:12.722Z,1747
2022-10-18T06:14:04.525Z,1817
2022-10-18T06:14:56.264Z,2023
2022-10-18T06:15:48.068Z,1969
2022-10-18T06:16:39.876Z,2075
2022-10-18T06:17:32.599Z,2335
2022-10-18T06:18:23.378Z,2567
2022-10-18T06:19:15.152Z,2551
2022-10-18T06:20:06.806Z,2503
2022-10-18T06:20:58.716Z,2595
2022-10-18T06:21:50.461Z,2500
2022-10-18T06:22:42.268Z,2470
2022-10-18T06:23:34.023Z,2474
2022-10-18T06:24:25.809Z,2525
2022-10-18T06:25:17.600Z,2613
2022-10-18T06:26:09.362Z,2648
2022-10-18T06:27:01.073Z,2686
2022-10-18T06:27:52.927Z,2646
2022-10-18T06:28:44.783Z,2819
2022-10-18T06:29:36.470Z,2696
2022-10-18T06:30:28.242Z,2724
2022-10-18T06:31:20.009Z,2817
2022-10-18T06:32:11.780Z,2712
2022-10-18T06:33:03.563Z,2893
2022-10-18T06:33:55.326Z,2748
2022-10-18T06:34:47.103Z,2940
2022-10-18T06:35:38.886Z,2924
2022-10-18T06:36:30.673Z,2875
2022-10-18T06:37:22.459Z,2873
2022-10-18T06:38:14.241Z,2841
2022-10-18T06:39:05.999Z,2920
2022-10-18T06:39:57.724Z,3113
2022-10-18T06:40:49.567Z,3067
2022-10-18T06:41:41.363Z,3115
2022-10-18T06:42:33.463Z,3069
2022-10-18T06:43:24.930Z,2928
2022-10-18T06:44:16.675Z,3188
2022-10-18T06:45:08.496Z,3149
2022-10-18T06:46:00.243Z,3121
2022-10-18T06:46:52.043Z,3230
2022-10-18T06:47:43.803Z,3010
2022-10-18T06:48:35.619Z,7332
2022-10-18T06:49:27.399Z,4792
2022-10-18T06:50:19.156Z,3440
2022-10-18T06:51:10.918Z,4897
2022-10-18T06:52:02.709Z,3212
2022-10-18T06:52:54.491Z,3202
2022-10-18T06:53:59.060Z,3773
2022-10-18T06:54:38.038Z,5164
2022-10-18T06:55:29.827Z,4760
2022-10-18T06:56:21.601Z,6531
2022-10-18T06:57:13.399Z,5908
2022-10-18T06:58:05.162Z,5261
2022-10-18T06:59:48.673Z,5415
2022-10-18T07:00:40.538Z,4388
2022-10-18T07:01:32.377Z,5019
2022-10-18T07:02:24.082Z,4444
2022-10-18T07:03:15.857Z,4630
2022-10-18T07:04:07.617Z,3975
2022-10-18T07:04:59.428Z,3482
2022-10-18T07:05:51.222Z,4687
2022-10-18T07:06:42.983Z,4768
2022-10-18T07:07:35.159Z,4978
2022-10-18T07:08:26.551Z,3222
2022-10-18T07:09:18.331Z,3635
2022-10-18T07:10:13.000Z,5253
2022-10-18T07:11:01.961Z,5423
2022-10-18T07:11:53.668Z,5722
2022-10-18T07:12:45.464Z,5803
2022-10-18T07:13:37.247Z,5957
2022-10-18T07:14:29.355Z,5949
2022-10-18T07:15:20.889Z,5512
2022-10-18T07:16:14.321Z,5787
2022-10-18T07:17:04.366Z,5310
2022-10-18T07:17:56.166Z,5196
2022-10-18T07:18:47.847Z,4978
2022-10-18T07:19:39.739Z,3838
2022-10-18T07:20:31.502Z,4202
2022-10-18T07:21:23.317Z,4833
2022-10-18T07:22:15.056Z,4695
2022-10-18T07:23:06.852Z,4897
2022-10-18T07:23:58.615Z,5027
2022-10-18T07:24:50.414Z,5512
2022-10-18T07:25:42.212Z,5294
2022-10-18T07:26:33.981Z,5455
2022-10-18T07:27:25.768Z,5714
2022-10-18T07:28:17.480Z,5342
2022-10-18T07:29:09.416Z,5237
2022-10-18T07:30:01.164Z,5237
2022-10-18T07:30:52.881Z,5116
2022-10-18T07:31:44.689Z,5536
2022-10-18T07:32:36.455Z,4218
2022-10-18T07:33:28.191Z,3781
2022-10-18T07:34:20.018Z,3506
2022-10-18T07:36:03.581Z,5043
2022-10-18T07:36:55.383Z,5051
2022-10-18T07:37:47.167Z,5010
2022-10-18T07:38:38.948Z,5350
2022-10-18T07:39:30.722Z,5148
2022-10-18T07:40:22.532Z,5010
2022-10-18T07:41:14.299Z,5285
2022-10-18T07:42:06.078Z,5035
2022-10-18T07:42:59.144Z,4970
2022-10-18T07:43:49.647Z,4881
2022-10-18T07:44:41.422Z,5205
2022-10-18T07:45:33.245Z,4857
2022-10-18T07:46:24.982Z,5051
2022-10-18T07:47:16.799Z,5116
2022-10-18T07:48:08.549Z,4784
2022-10-18T07:49:00.358Z,4970
2022-10-18T07:49:52.122Z,4954
2022-10-18T07:50:43.926Z,5075
2022-10-18T07:51:35.697Z,5083
2022-10-18T07:52:27.438Z,4946
2022-10-18T07:53:19.274Z,4703
2022-10-18T07:54:11.077Z,4760
2022-10-18T07:55:02.796Z,5075
2022-10-18T07:55:54.661Z,5027
2022-10-18T07:56:46.416Z,4905
2022-10-18T07:57:38.134Z,4541
2022-10-18T07:58:29.978Z,4752
2022-10-18T07:59:21.771Z,4137
2022-10-18T08:00:13.576Z,3910
2022-10-18T08:01:05.331Z,4258
2022-10-18T08:01:57.166Z,4833
2022-10-18T08:02:48.945Z,4574
2022-10-18T08:03:40.675Z,4541
2022-10-18T08:04:32.477Z,3603
2022-10-18T08:05:24.305Z,3024
2022-10-18T08:06:16.058Z,3230
2022-10-18T08:07:07.782Z,3099
2022-10-18T08:08:01.957Z,3399
2022-10-18T08:08:51.387Z,4954
2022-10-18T08:09:43.188Z,5730
2022-10-18T08:10:34.994Z,6855
2022-10-18T08:11:26.750Z,7186
2022-10-18T08:12:18.512Z,7720
2022-10-18T08:13:10.319Z,7995
2022-10-18T08:14:02.102Z,7736
2022-10-18T08:14:53.883Z,8084
2022-10-18T08:15:45.660Z,7469
2022-10-18T08:16:37.560Z,7615
2022-10-18T08:17:29.308Z,7744
2022-10-18T08:18:21.029Z,7898
2022-10-18T08:19:12.797Z,7219
2022-10-18T08:20:12.181Z,7453
2022-10-18T08:20:56.368Z,6523
2022-10-18T08:21:48.074Z,3741
2022-10-18T08:22:39.953Z,4307
2022-10-18T08:23:31.731Z,4024
2022-10-18T08:24:23.492Z,5172
2022-10-18T08:25:15.295Z,5973
2022-10-18T08:26:07.079Z,4129
2022-10-18T08:26:58.866Z,5625
2022-10-18T08:27:50.622Z,5310
2022-10-18T08:28:46.173Z,6208
2022-10-18T08:29:34.261Z,4185
2022-10-18T08:30:25.978Z,6612
2022-10-18T08:31:17.774Z,7097
2022-10-18T08:32:09.551Z,7413
2022-10-18T08:33:01.265Z,7202
2022-10-18T08:33:53.105Z,6216
2022-10-18T08:34:44.886Z,5730
2022-10-18T08:35:36.671Z,5989
2022-10-18T08:36:28.465Z,6410
2022-10-18T08:37:20.253Z,5099
2022-10-18T08:38:16.501Z,6167
2022-10-18T08:39:03.824Z,5261
2022-10-18T08:39:55.576Z,4509
2022-10-18T08:40:47.357Z,5892
2022-10-18T08:41:39.153Z,6628
2022-10-18T08:42:31.200Z,5892
2022-10-18T08:43:22.781Z,7219
2022-10-18T08:44:14.527Z,7154
2022-10-18T08:45:12.655Z,6855
2022-10-18T08:45:58.012Z,6046
2022-10-18T08:46:49.835Z,6547
2022-10-18T08:47:41.629Z,6903
2022-10-18T08:48:33.402Z,6644
2022-10-18T08:49:25.224Z,6669
2022-10-18T08:50:16.990Z,6110
2022-10-18T08:51:08.801Z,5819
2022-10-18T08:52:00.575Z,5188
2022-10-18T08:52:52.387Z,6515
2022-10-18T08:53:44.146Z,5844
2022-10-18T08:54:35.923Z,5245
2022-10-18T08:55:27.663Z,6054
2022-10-18T08:56:19.485Z,3002
2022-10-18T08:57:11.258Z,3983
2022-10-18T08:58:03.057Z,5649
2022-10-18T08:58:54.816Z,5221
2022-10-18T08:59:46.670Z,3813
2022-10-18T09:00:38.398Z,3975
2022-10-18T09:01:30.180Z,3168
2022-10-18T09:02:21.998Z,3496
2022-10-18T09:03:13.810Z,4315
2022-10-18T09:04:05.516Z,3311
2022-10-18T09:04:57.365Z,3230
2022-10-18T09:05:49.117Z,3188
2022-10-18T09:06:40.833Z,2748
2022-10-18T09:07:32.652Z,2498
2022-10-18T09:08:24.452Z,3440
2022-10-18T09:09:16.221Z,3470
2022-10-18T09:10:07.963Z,3300
2022-10-18T09:10:59.797Z,4452
2022-10-18T09:11:51.600Z,4210
2022-10-18T09:12:43.358Z,7162
2022-10-18T09:13:35.159Z,7817
2022-10-18T09:14:26.935Z,9540
2022-10-18T09:15:18.730Z,10931
2022-10-18T09:16:10.494Z,10349
2022-10-18T09:17:02.282Z,9338
2022-10-18T09:17:54.047Z,9750
2022-10-18T09:18:45.858Z,9419
2022-10-18T09:19:37.603Z,9734
2022-10-18T09:20:29.418Z,10017
2022-10-18T09:21:21.183Z,9944
2022-10-18T09:22:12.973Z,10211
2022-10-18T09:23:04.754Z,9783
2022-10-18T09:23:56.549Z,10106
2022-10-18T09:24:48.244Z,9718
2022-10-18T09:25:40.408Z,9880
2022-10-18T09:26:31.910Z,9653
2022-10-18T09:27:23.684Z,9823
2022-10-18T09:28:15.461Z,9944
2022-10-18T09:29:07.409Z,9564
2022-10-18T09:29:59.049Z,9685
2022-10-18T09:30:50.832Z,9491
2022-10-18T09:31:42.604Z,9516
2022-10-18T09:32:34.832Z,9661
2022-10-18T09:33:26.186Z,9516
2022-10-18T09:34:17.910Z,9597
2022-10-18T09:35:09.784Z,9605
2022-10-18T09:36:01.549Z,9475
2022-10-18T09:36:53.321Z,9548
2022-10-18T09:37:45.127Z,9621
2022-10-18T09:38:36.893Z,9605
2022-10-18T09:39:28.694Z,9354
2022-10-18T09:40:20.563Z,9475
2022-10-18T09:41:12.265Z,9362
2022-10-18T09:42:04.036Z,9443
2022-10-18T09:42:55.839Z,9637
2022-10-18T09:43:47.523Z,9346
2022-10-18T09:44:39.420Z,9491
2022-10-18T09:45:31.185Z,9330
2022-10-18T09:46:23.009Z,10041
2022-10-18T09:47:16.902Z,10195
2022-10-18T09:48:06.656Z,10397
2022-10-18T09:48:58.314Z,10519
2022-10-18T09:49:50.115Z,10446
2022-10-18T09:50:41.899Z,9791
2022-10-18T09:51:33.720Z,10688
2022-10-18T09:52:25.453Z,8213
2022-10-18T09:53:17.239Z,5924
2022-10-18T09:54:09.036Z,4792
2022-10-18T09:55:00.812Z,5641
2022-10-18T09:55:52.580Z,4760
2022-10-18T09:56:44.451Z,3943
2022-10-18T09:57:36.181Z,2972
2022-10-18T09:58:27.844Z,2488
2022-10-18T09:59:19.715Z,2222
2022-10-18T10:00:11.505Z,2384
2022-10-18T10:01:03.296Z,2212
2022-10-18T10:01:55.029Z,1940
2022-10-18T10:02:46.851Z,1580
2022-10-18T10:03:38.584Z,1326
2022-10-18T10:04:30.279Z,1539
2022-10-18T10:05:22.157Z,1416
2022-10-18T10:06:13.891Z,1098
2022-10-18T10:07:05.676Z,935
2022-10-18T10:07:57.426Z,965
2022-10-18T10:08:49.222Z,1064
2022-10-18T10:09:40.959Z,890
2022-10-18T10:10:32.740Z,872
2022-10-18T10:11:24.514Z,1025
2022-10-18T10:12:16.256Z,1011
2022-10-18T10:13:07.943Z,1034
2022-10-18T10:13:59.807Z,844
2022-10-18T10:14:51.540Z,780
2022-10-18T10:15:43.349Z,581
2022-10-18T10:16:35.099Z,585
2022-10-18T10:17:26.877Z,638
2022-10-18T10:18:18.650Z,596
2022-10-18T10:19:10.406Z,633
2022-10-18T10:20:02.228Z,572
2022-10-18T10:20:53.951Z,615
2022-10-18T10:21:45.677Z,660
2022-10-18T10:22:37.490Z,651
2022-10-18T10:23:29.235Z,697
2022-10-18T10:24:21.012Z,618
2022-10-18T10:25:12.743Z,540
2022-10-18T10:26:04.506Z,537
2022-10-18T10:26:56.257Z,511
2022-10-18T10:27:47.940Z,609
2022-10-18T10:28:39.806Z,672
2022-10-18T10:29:44.046Z,1029
2022-10-18T10:30:23.292Z,786
2022-10-18T10:31:15.071Z,892
2022-10-18T10:32:06.809Z,814
2022-10-18T10:32:58.597Z,637
2022-10-18T10:33:50.341Z,618
2022-10-18T10:34:44.689Z,648
2022-10-18T10:35:52.575Z,636
2022-10-18T10:36:25.651Z,669
2022-10-18T10:37:17.428Z,622
2022-10-18T10:38:09.205Z,705
2022-10-18T10:39:00.965Z,768
2022-10-18T10:40:13.744Z,1298
2022-10-18T10:40:44.496Z,1414
2022-10-18T10:41:36.292Z,800
2022-10-18T10:42:27.971Z,1167
2022-10-18T10:43:36.541Z,1102
2022-10-18T10:44:11.605Z,627
2022-10-18T10:45:03.280Z,1648
2022-10-18T10:45:55.146Z,1868
2022-10-18T10:46:46.912Z,1007
2022-10-18T10:47:38.644Z,872
2022-10-18T10:48:33.252Z,693
2022-10-18T10:49:39.861Z,1144
2022-10-18T10:50:13.974Z,1142
2022-10-18T10:51:05.728Z,719
2022-10-18T10:52:08.318Z,2049
2022-10-18T10:52:49.281Z,1432
2022-10-18T10:53:41.074Z,642
2022-10-18T10:54:32.837Z,691
2022-10-18T10:55:34.764Z,614
2022-10-18T10:56:16.347Z,543
2022-10-18T10:57:08.038Z,561
2022-10-18T10:57:59.876Z,508
2022-10-18T10:58:51.715Z,494
2022-10-18T10:59:43.418Z,443
2022-10-18T11:00:35.200Z,622
2022-10-18T11:01:26.971Z,1348
2022-10-18T11:02:18.760Z,1243
2022-10-18T11:03:27.237Z,588
2022-10-18T11:04:02.422Z,1368
2022-10-18T11:04:54.064Z,1813
2022-10-18T11:05:45.903Z,955
2022-10-18T11:06:37.622Z,1261
2022-10-18T11:07:29.417Z,1306
2022-10-18T11:08:23.940Z,2825
2022-10-18T11:09:12.957Z,1557
2022-10-18T11:10:04.758Z,774
2022-10-18T11:10:56.509Z,1465
2022-10-18T11:11:48.245Z,1561
2022-10-18T11:12:40.056Z,1497
2022-10-18T11:13:31.796Z,1481
2022-10-18T11:14:26.159Z,1418
2022-10-18T11:15:15.354Z,2412
2022-10-18T11:16:07.146Z,1348
2022-10-18T11:16:58.928Z,864
2022-10-18T11:17:50.774Z,955
2022-10-18T11:18:42.473Z,676
2022-10-18T11:19:34.265Z,766
2022-10-18T11:20:26.006Z,1191
2022-10-18T11:21:17.718Z,1340
2022-10-18T11:22:09.578Z,691
2022-10-18T11:23:01.395Z,633
2022-10-18T11:23:53.169Z,613
2022-10-18T11:24:44.933Z,605
2022-10-18T11:25:36.698Z,684
2022-10-18T11:26:28.504Z,620
2022-10-18T11:27:20.255Z,582
2022-10-18T11:28:12.052Z,650
2022-10-18T11:29:03.858Z,937
2022-10-18T11:29:55.615Z,1169
2022-10-18T11:30:47.403Z,1823
2022-10-18T11:31:39.230Z,1888
2022-10-18T11:32:31.678Z,1557
2022-10-18T11:33:29.509Z,2363
2022-10-18T11:34:14.529Z,3262
2022-10-18T11:35:06.309Z,2623
2022-10-18T11:36:02.879Z,2321
2022-10-18T11:36:57.919Z,1398
